Time;durP1;ratioP1;P1;durP2;ratioP2;P2;SDS_P1;SDS_P2;PMS_P1;PMS_P2;Temp;Humidity;BMP_temperature;BMP_pressure;BME280_temperature;BME280_humidity;BME280_pressure;Samples;Min_cycle;Max_cycle;Signal;HPM_P1;HPM_P2
2022/06/16 00:01:15;;;;;;;14.82;8.40;;;;;;;15.96;100.00;99544.84;4866461;29;20113;-86
2022/06/16 00:03:41;;;;;;;11.57;8.32;;;;;;;15.89;100.00;99544.88;4889542;29;20488;-86
2022/06/16 00:06:06;;;;;;;12.05;8.65;;;;;;;15.73;100.00;99551.50;4875274;29;20065;-89
2022/06/16 00:08:32;;;;;;;13.13;8.35;;;;;;;15.80;100.00;99549.63;4855219;29;20049;-87
2022/06/16 00:11:17;;;;;;;11.90;8.63;;;;;;;15.84;100.00;99542.06;4874154;29;20068;-89
2022/06/16 00:13:44;;;;;;;12.43;9.05;;;;;;;15.80;100.00;99544.31;4878104;29;20050;-88
2022/06/16 00:16:13;;;;;;;11.95;8.48;;;;;;;15.66;100.00;99542.78;4863085;29;20033;-87
2022/06/16 00:18:41;;;;;;;11.55;8.90;;;;;;;15.48;100.00;99533.75;4892232;29;20060;-87
2022/06/16 00:21:07;;;;;;;12.93;8.35;;;;;;;15.75;100.00;99532.75;4871695;29;20032;-87
2022/06/16 00:23:34;;;;;;;12.93;8.38;;;;;;;15.81;100.00;99551.22;4871941;29;20037;-87
2022/06/16 00:26:00;;;;;;;13.18;8.57;;;;;;;15.74;100.00;99549.66;4859466;29;20033;-88
2022/06/16 00:28:25;;;;;;;9.23;7.57;;;;;;;15.75;100.00;99554.75;4872720;29;20083;-87
2022/06/16 00:30:51;;;;;;;13.35;7.75;;;;;;;15.70;100.00;99546.63;4890318;29;20041;-86
2022/06/16 00:33:22;;;;;;;9.07;6.60;;;;;;;15.57;100.00;99545.72;4875663;29;20048;-88
2022/06/16 00:35:51;;;;;;;11.07;6.80;;;;;;;15.52;100.00;99544.75;4878898;29;20032;-88
2022/06/16 00:38:16;;;;;;;11.88;7.78;;;;;;;15.51;100.00;99549.22;4870652;29;20471;-87
2022/06/16 00:40:42;;;;;;;14.48;7.45;;;;;;;15.42;100.00;99561.09;4872481;29;20505;-86
2022/06/16 00:43:09;;;;;;;8.13;7.03;;;;;;;15.48;100.00;99544.34;4875328;29;20498;-87
2022/06/16 00:45:47;;;;;;;9.27;6.30;;;;;;;15.50;100.00;99546.78;4893275;29;20513;-87
2022/06/16 00:48:18;;;;;;;14.30;6.68;;;;;;;15.50;100.00;99541.50;4857041;29;20080;-88
2022/06/16 00:50:46;;;;;;;10.18;7.00;;;;;;;15.54;100.00;99545.34;4892341;29;20028;-88
2022/06/16 00:53:11;;;;;;;10.13;5.75;;;;;;;15.36;100.00;99535.50;4858740;29;20041;-88
2022/06/16 00:55:38;;;;;;;9.30;6.07;;;;;;;15.26;100.00;99535.97;4852671;29;20483;-87
2022/06/16 00:58:03;;;;;;;8.43;5.28;;;;;;;15.44;100.00;99543.16;4861519;29;20096;-87
2022/06/16 01:00:34;;;;;;;6.70;6.00;;;;;;;15.43;100.00;99541.53;4868409;29;20037;-88
2022/06/16 01:02:59;;;;;;;7.47;5.47;;;;;;;15.32;100.00;99539.56;4868117;29;20044;-87
2022/06/16 01:05:25;;;;;;;10.32;6.10;;;;;;;15.35;100.00;99544.47;4859356;29;20037;-88
2022/06/16 01:07:54;;;;;;;8.95;5.85;;;;;;;15.32;100.00;99550.16;4884532;29;20052;-86
2022/06/16 01:10:20;;;;;;;8.57;5.47;;;;;;;15.42;100.00;99558.44;4856668;29;20036;-88
2022/06/16 01:13:42;;;;;;;11.18;4.80;;;;;;;15.36;99.69;99549.50;4889475;29;20041;-87
2022/06/16 01:16:17;;;;;;;6.35;4.50;;;;;;;15.51;98.49;99549.22;4868797;29;20036;-88
2022/06/16 01:18:52;;;;;;;7.93;4.95;;;;;;;15.31;98.13;99549.34;4870431;29;20060;-89
2022/06/16 01:21:41;;;;;;;8.10;4.72;;;;;;;15.54;97.02;99548.81;4874496;29;20029;-87
2022/06/16 01:24:21;;;;;;;6.03;4.53;;;;;;;15.51;96.19;99543.13;4844202;29;20045;-88
2022/06/16 01:27:15;;;;;;;5.68;4.35;;;;;;;15.59;94.74;99550.00;4871426;29;20124;-87
2022/06/16 01:29:58;;;;;;;4.78;3.47;;;;;;;15.50;94.29;99552.88;4853813;29;20044;-88
2022/06/16 01:33:05;;;;;;;4.22;3.72;;;;;;;15.38;93.26;99555.41;4884367;29;20055;-87
2022/06/16 01:35:41;;;;;;;5.38;4.47;;;;;;;15.27;92.31;99551.59;4870277;29;20048;-87
2022/06/16 01:38:18;;;;;;;8.13;3.70;;;;;;;15.35;91.27;99560.31;4870103;29;20028;-87
2022/06/16 01:40:56;;;;;;;7.35;3.63;;;;;;;15.10;90.22;99558.41;4874585;29;20045;-88
2022/06/16 01:43:32;;;;;;;4.63;3.55;;;;;;;15.19;89.37;99554.50;4892316;29;20391;-87
2022/06/16 01:46:02;;;;;;;7.68;3.55;;;;;;;15.01;89.22;99559.69;4857703;29;20483;-88
2022/06/16 01:48:30;;;;;;;5.25;3.78;;;;;;;15.16;88.73;99562.88;4871172;29;20081;-88
2022/06/16 01:51:06;;;;;;;6.05;3.90;;;;;;;15.19;89.17;99570.38;4860358;29;20039;-88
2022/06/16 01:53:38;;;;;;;9.95;3.85;;;;;;;15.13;89.85;99571.19;4854734;29;20044;-88
2022/06/16 01:56:20;;;;;;;5.63;3.70;;;;;;;14.94;91.64;99579.03;4885748;29;20411;-88
2022/06/16 01:58:55;;;;;;;6.25;4.13;;;;;;;14.96;92.73;99587.56;4872390;29;20480;-88
2022/06/16 02:01:26;;;;;;;8.20;4.60;;;;;;;14.96;93.80;99587.56;4889521;29;20515;-87
2022/06/16 02:04:16;;;;;;;6.47;4.28;;;;;;;15.03;93.89;99574.31;4852286;29;20499;-87
2022/06/16 02:06:48;;;;;;;7.07;4.05;;;;;;;14.92;94.53;99573.13;4851661;29;20052;-87
2022/06/16 02:09:25;;;;;;;5.85;4.32;;;;;;;14.93;94.72;99585.31;4883808;29;20052;-86
2022/06/16 02:11:54;;;;;;;4.88;4.30;;;;;;;14.82;95.21;99580.72;4874110;29;20119;-87
2022/06/16 02:14:44;;;;;;;4.93;4.43;;;;;;;15.04;94.70;99569.84;4887967;29;20510;-87
2022/06/16 02:17:10;;;;;;;7.18;4.30;;;;;;;14.98;94.71;99582.88;4871135;29;20116;-86
2022/06/16 02:19:37;;;;;;;12.27;5.03;;;;;;;14.85;94.92;99578.47;4886766;29;20024;-88
2022/06/16 02:22:03;;;;;;;8.93;4.75;;;;;;;14.71;95.59;99580.31;4886277;29;20395;-87
2022/06/16 02:24:30;;;;;;;8.55;5.53;;;;;;;14.65;95.37;99567.91;4874901;29;20043;-88
2022/06/16 02:26:58;;;;;;;8.25;5.88;;;;;;;14.81;95.32;99569.31;4871630;29;20040;-87
2022/06/16 02:29:34;;;;;;;7.45;4.97;;;;;;;14.76;95.62;99571.78;4875410;29;20056;-87
2022/06/16 02:32:00;;;;;;;7.93;4.97;;;;;;;14.74;95.66;99573.00;4886245;29;20052;-87
2022/06/16 02:34:58;;;;;;;6.80;5.15;;;;;;;14.73;95.49;99571.38;4880137;29;20437;-87
2022/06/16 02:37:36;;;;;;;8.45;5.05;;;;;;;14.43;95.97;99570.81;4877360;29;20033;-88
2022/06/16 02:40:38;;;;;;;8.02;5.03;;;;;;;14.46;96.24;99563.50;4874683;29;20543;-88
2022/06/16 02:43:34;;;;;;;10.55;4.68;;;;;;;14.54;96.09;99565.91;4859034;29;20037;-86
2022/06/16 02:46:15;;;;;;;8.88;5.35;;;;;;;14.56;95.76;99569.19;4889815;29;20479;-87
2022/06/16 02:49:12;;;;;;;12.05;6.47;;;;;;;14.42;96.08;99568.38;4890438;29;20567;-87
2022/06/16 02:51:48;;;;;;;8.68;5.20;;;;;;;14.49;96.12;99568.38;4873541;29;20033;-89
2022/06/16 02:54:26;;;;;;;9.43;5.05;;;;;;;14.26;96.54;99573.09;4873331;29;20066;-87
2022/06/16 02:57:02;;;;;;;9.23;5.18;;;;;;;14.28;96.49;99584.25;4876054;29;20041;-88
2022/06/16 02:59:34;;;;;;;8.15;5.03;;;;;;;14.39;96.07;99569.63;4891668;29;20028;-88
2022/06/16 03:02:04;;;;;;;10.57;5.32;;;;;;;14.16;96.65;99580.63;4853582;29;20097;-87
2022/06/16 03:04:47;;;;;;;9.07;5.50;;;;;;;14.37;96.19;99573.47;4861588;29;20530;-86
2022/06/16 03:07:14;;;;;;;11.93;5.38;;;;;;;14.27;96.45;99582.66;4874768;29;20151;-89
2022/06/16 03:09:40;;;;;;;8.65;5.07;;;;;;;14.24;96.61;99561.91;4859002;29;20041;-86
2022/06/16 03:12:08;;;;;;;8.63;5.45;;;;;;;14.23;96.68;99572.69;4863570;29;20499;-87
2022/06/16 03:14:34;;;;;;;8.50;5.38;;;;;;;14.21;96.83;99572.09;4888449;29;20420;-87
2022/06/16 03:17:01;;;;;;;8.40;5.28;;;;;;;14.23;96.84;99572.69;4864313;29;20106;-87
2022/06/16 03:19:27;;;;;;;10.15;5.28;;;;;;;14.22;96.99;99579.00;4878084;29;20041;-87
2022/06/16 03:21:54;;;;;;;12.30;6.22;;;;;;;14.22;96.92;99574.50;4861098;29;20099;-86
2022/06/16 03:24:21;;;;;;;6.40;5.20;;;;;;;14.08;97.32;99576.34;4871328;29;20033;-86
2022/06/16 03:26:47;;;;;;;13.43;7.00;;;;;;;14.08;97.38;99578.19;4892190;29;20088;-86
2022/06/16 03:29:13;;;;;;;6.97;5.75;;;;;;;14.09;97.20;99585.91;4863246;29;20387;-86
2022/06/16 03:31:39;;;;;;;8.43;5.72;;;;;;;14.14;96.77;99582.66;4877622;29;20054;-86
2022/06/16 03:34:05;;;;;;;6.72;5.70;;;;;;;14.26;95.91;99585.47;4893351;29;20051;-86
2022/06/16 03:36:31;;;;;;;9.05;6.40;;;;;;;14.17;96.29;99584.06;4858224;29;20067;-86
2022/06/16 03:39:01;;;;;;;7.45;5.53;;;;;;;14.14;96.25;99583.44;4871270;29;20063;-87
2022/06/16 03:41:27;;;;;;;8.60;6.80;;;;;;;14.08;96.30;99589.56;4869096;29;20037;-86
2022/06/16 03:43:53;;;;;;;8.32;5.47;;;;;;;14.07;96.05;99582.66;4872242;29;20395;-86
2022/06/16 03:46:19;;;;;;;11.15;5.68;;;;;;;14.19;95.93;99577.56;4872348;29;20177;-84
2022/06/16 03:48:45;;;;;;;11.25;5.85;;;;;;;14.17;95.33;99589.34;4897462;29;20136;-85
2022/06/16 03:51:11;;;;;;;10.73;5.72;;;;;;;14.21;94.84;99593.22;4892424;29;20156;-85
2022/06/16 03:53:39;;;;;;;12.38;5.70;;;;;;;14.17;95.10;99592.00;4882496;29;20119;-87
2022/06/16 03:56:05;;;;;;;9.27;5.20;;;;;;;14.06;95.46;99586.31;4887427;29;20112;-87
2022/06/16 03:58:32;;;;;;;9.85;5.38;;;;;;;14.08;95.09;99594.03;4860194;29;20046;-86
2022/06/16 04:00:58;;;;;;;15.27;6.47;;;;;;;14.19;94.94;99595.25;4872809;29;20017;-88
2022/06/16 04:06:10;;;;;;;10.07;5.65;;;;;;;14.34;94.01;99603.72;4891582;29;20092;-86
2022/06/16 04:08:37;;;;;;;7.30;4.93;;;;;;;14.33;94.33;99599.47;4875964;29;20045;-85
2022/06/16 04:11:26;;;;;;;10.57;5.70;;;;;;;14.35;94.02;99605.38;4876040;29;20036;-88
2022/06/16 04:13:50;;;;;;;8.23;4.40;;;;;;;14.46;93.06;99601.31;4893391;29;20037;-86
2022/06/16 04:16:17;;;;;;;5.95;5.18;;;;;;;14.47;92.87;99589.72;4863120;29;20066;-87
2022/06/16 04:18:42;;;;;;;9.18;5.05;;;;;;;14.47;92.83;99612.66;4891942;29;20033;-87
2022/06/16 04:21:12;;;;;;;7.43;5.20;;;;;;;14.34;92.87;99609.00;4878944;29;20032;-88
2022/06/16 04:23:39;;;;;;;9.05;4.82;;;;;;;14.43;92.75;99615.72;4863620;29;20408;-87
2022/06/16 04:26:05;;;;;;;8.00;4.68;;;;;;;14.58;92.07;99619.97;4873398;29;20067;-85
2022/06/16 04:28:31;;;;;;;6.13;5.10;;;;;;;14.69;91.77;99621.97;4871904;29;20449;-86
2022/06/16 04:30:57;;;;;;;8.07;5.00;;;;;;;14.80;91.22;99622.38;4893435;29;20041;-86
2022/06/16 04:33:24;;;;;;;7.25;4.88;;;;;;;14.92;90.93;99636.56;4873503;29;20036;-86
2022/06/16 04:35:51;;;;;;;6.15;4.43;;;;;;;15.03;90.21;99632.47;4870099;29;20416;-86
2022/06/16 04:38:17;;;;;;;6.28;4.22;;;;;;;15.06;89.75;99642.63;4855308;29;20048;-87
2022/06/16 04:40:42;;;;;;;7.60;4.25;;;;;;;15.28;89.29;99639.69;4888345;29;20170;-87
2022/06/16 04:43:08;;;;;;;6.95;4.90;;;;;;;15.28;89.91;99643.13;4887819;29;20028;-86
2022/06/16 04:45:34;;;;;;;4.90;4.18;;;;;;;15.28;89.63;99642.34;4856236;29;20033;-86
2022/06/16 04:47:59;;;;;;;6.28;4.43;;;;;;;15.26;89.84;99626.69;4871672;29;20037;-86
2022/06/16 04:50:25;;;;;;;6.13;4.10;;;;;;;15.32;89.55;99642.72;4873473;29;20033;-87
2022/06/16 04:52:50;;;;;;;5.13;4.63;;;;;;;15.15;90.28;99653.78;4852998;29;20064;-85
2022/06/16 04:55:17;;;;;;;8.85;4.32;;;;;;;15.13;90.21;99653.16;4856490;29;20033;-86
2022/06/16 04:57:43;;;;;;;6.57;4.57;;;;;;;15.36;89.88;99651.88;4870282;29;20501;-87
2022/06/16 05:00:13;;;;;;;5.00;4.50;;;;;;;15.38;90.21;99663.06;4874343;29;20081;-88
2022/06/16 05:02:39;;;;;;;7.70;4.70;;;;;;;15.47;90.19;99659.13;4886622;29;20051;-85
2022/06/16 05:05:06;;;;;;;4.40;3.92;;;;;;;15.42;90.34;99656.31;4870274;29;20033;-84
2022/06/16 05:07:31;;;;;;;6.22;4.47;;;;;;;15.38;90.91;99655.91;4869939;29;20048;-86
2022/06/16 05:09:57;;;;;;;6.43;4.65;;;;;;;15.51;90.16;99665.63;4858536;29;20487;-86
2022/06/16 05:12:23;;;;;;;6.03;4.28;;;;;;;15.71;89.42;99656.75;4871398;29;20037;-87
2022/06/16 05:14:49;;;;;;;8.13;4.50;;;;;;;15.99;89.29;99652.94;4872119;29;20029;-87
2022/06/16 05:17:15;;;;;;;9.00;4.80;;;;;;;15.93;90.66;99659.91;4869836;29;20064;-85
2022/06/16 05:19:41;;;;;;;6.93;4.35;;;;;;;16.17;89.08;99649.53;4871460;29;20046;-87
2022/06/16 05:22:08;;;;;;;6.50;4.38;;;;;;;16.22;88.24;99654.19;4853003;29;20449;-86
2022/06/16 05:24:52;;;;;;;7.07;4.50;;;;;;;16.45;87.06;99660.72;4869941;29;20073;-87
2022/06/16 05:27:17;;;;;;;;;;;;;;;16.61;86.79;99656.72;4888702;29;21888;-88
2022/06/16 05:29:43;;;;;;;5.07;3.88;;;;;;;16.87;86.60;99652.97;4852991;29;19919;-84
2022/06/16 05:32:10;;;;;;;7.13;4.00;;;;;;;16.94;86.53;99650.25;4884371;29;20036;-89
2022/06/16 05:34:36;;;;;;;4.72;4.20;;;;;;;17.12;86.16;99647.59;4870822;29;20029;-88
2022/06/16 05:37:02;;;;;;;5.43;4.30;;;;;;;17.13;86.27;99646.56;4873532;29;20045;-89
2022/06/16 05:39:28;;;;;;;5.18;4.03;;;;;;;17.14;86.33;99660.66;4869282;29;20048;-88
2022/06/16 05:41:53;;;;;;;5.97;4.03;;;;;;;17.35;86.97;99655.91;4888560;29;20151;-88
2022/06/16 05:44:19;;;;;;;6.82;5.00;;;;;;;17.49;86.06;99657.38;4870139;29;20037;-89
2022/06/16 05:46:44;;;;;;;6.97;4.85;;;;;;;17.63;85.99;99657.16;4868164;29;20036;-89
2022/06/16 05:49:15;;;;;;;6.28;3.92;;;;;;;17.94;85.67;99657.94;4886162;29;20025;-89
2022/06/16 05:51:41;;;;;;;7.95;4.07;;;;;;;18.11;85.69;99648.31;4853930;29;20033;-89
2022/06/16 05:54:08;;;;;;;5.75;3.90;;;;;;;18.33;84.94;99663.69;4860188;29;20028;-87
2022/06/16 05:56:35;;;;;;;12.88;4.07;;;;;;;18.13;84.87;99661.34;4869371;29;20055;-87
2022/06/16 05:59:00;;;;;;;4.85;4.10;;;;;;;18.28;84.07;99663.59;4870019;29;20032;-89
2022/06/16 06:01:26;;;;;;;8.75;4.43;;;;;;;18.11;83.75;99666.91;4854049;29;20037;-89
2022/06/16 06:03:52;;;;;;;8.05;4.10;;;;;;;18.37;83.52;99670.16;4874665;29;20037;-90
2022/06/16 06:06:17;;;;;;;7.30;3.70;;;;;;;18.16;83.96;99670.72;4869625;29;20086;-87
2022/06/16 06:17:11;;;;;;;7.78;4.43;;;;;;;18.46;81.51;99681.25;4877160;29;20032;-88
2022/06/16 06:19:38;;;;;;;4.70;3.92;;;;;;;18.35;82.05;99682.88;4876629;29;20488;-90
2022/06/16 06:22:14;;;;;;;5.88;4.28;;;;;;;18.25;83.01;99683.44;4876895;29;20039;-90
2022/06/16 06:24:45;;;;;;;5.70;3.65;;;;;;;18.12;82.76;99660.56;4883883;29;20499;-89
2022/06/16 06:27:14;;;;;;;5.18;3.90;;;;;;;18.33;82.26;99671.66;4893423;29;20045;-90
2022/06/16 06:29:41;;;;;;;5.43;3.88;;;;;;;18.23;82.32;99650.16;4891970;29;20081;-89
2022/06/16 06:32:11;;;;;;;6.32;3.80;;;;;;;18.15;83.09;99642.53;4902640;29;20044;-89
2022/06/16 06:34:37;;;;;;;6.85;3.92;;;;;;;18.25;83.72;99661.34;4876053;29;20507;-90
2022/06/16 06:37:05;;;;;;;3.78;3.47;;;;;;;18.30;83.60;99632.28;4892186;29;20040;-89
2022/06/16 06:39:31;;;;;;;7.55;4.40;;;;;;;18.03;84.06;99629.25;4875134;29;20503;-90
2022/06/16 06:42:03;;;;;;;7.90;4.35;;;;;;;18.37;83.90;99656.06;4904796;29;20044;-89
2022/06/16 06:44:33;;;;;;;5.20;3.92;;;;;;;18.37;83.81;99651.56;4859200;29;20040;-90
2022/06/16 06:47:00;;;;;;;5.03;4.03;;;;;;;18.29;83.37;99635.97;4879872;29;20041;-90
2022/06/16 06:49:27;;;;;;;8.38;4.40;;;;;;;18.44;83.59;99655.94;4867225;29;20044;-89
2022/06/16 06:51:53;;;;;;;5.85;4.10;;;;;;;18.77;83.74;99670.50;4893460;29;20035;-89
2022/06/16 06:54:20;;;;;;;5.05;3.90;;;;;;;18.70;84.13;99671.44;4858170;29;21766;-90
2022/06/16 06:56:47;;;;;;;4.70;3.42;;;;;;;18.97;82.68;99680.78;4856526;29;20376;-88
2022/06/16 06:59:19;;;;;;;6.85;3.97;;;;;;;18.81;83.00;99682.28;4887728;29;20028;-88
2022/06/16 07:01:49;;;;;;;4.43;4.00;;;;;;;18.91;82.66;99682.50;4873241;29;20066;-86
2022/06/16 07:04:18;;;;;;;5.03;4.00;;;;;;;18.95;82.96;99678.34;4893880;29;20065;-86
2022/06/16 07:06:46;;;;;;;7.95;3.75;;;;;;;18.97;83.14;99686.88;4855195;29;20044;-86
2022/06/16 07:09:14;;;;;;;4.40;4.00;;;;;;;19.01;83.17;99689.09;4857177;29;20044;-86
2022/06/16 07:11:41;;;;;;;6.03;3.85;;;;;;;18.85;83.07;99688.75;4873418;29;20052;-89
2022/06/16 07:14:08;;;;;;;6.15;3.85;;;;;;;18.88;82.51;99685.66;4872604;29;20136;-82
2022/06/16 07:16:35;;;;;;;5.05;3.90;;;;;;;19.02;82.63;99685.41;4850081;29;20041;-82
2022/06/16 07:19:02;;;;;;;7.95;4.15;;;;;;;19.09;84.35;99678.91;4854721;29;20101;-84
2022/06/16 07:21:27;;;;;;;6.03;4.35;;;;;;;19.09;84.04;99672.78;4868599;29;20041;-84
2022/06/16 07:23:54;;;;;;;4.93;3.80;;;;;;;19.21;83.81;99684.19;4851984;29;20055;-83
2022/06/16 07:26:20;;;;;;;4.25;3.80;;;;;;;19.27;84.66;99675.28;4885858;29;20041;-82
2022/06/16 07:28:47;;;;;;;5.47;3.58;;;;;;;19.24;82.75;99686.38;4891333;29;20037;-83
2022/06/16 07:31:13;;;;;;;3.88;3.58;;;;;;;19.30;82.34;99673.19;4866915;29;20733;-83
2022/06/16 07:33:39;;;;;;;5.43;3.75;;;;;;;19.38;82.52;99670.16;4870395;29;20084;-86
2022/06/16 07:36:05;;;;;;;15.88;4.05;;;;;;;19.43;79.27;99672.91;4888143;29;20064;-83
2022/06/16 07:38:31;;;;;;;4.70;3.58;;;;;;;19.31;79.07;99670.28;4869578;29;20543;-83
2022/06/16 07:43:42;;;;;;;4.85;3.30;;;;;;;19.76;80.14;99665.25;4871737;29;20136;-84
2022/06/16 07:46:08;;;;;;;3.97;3.55;;;;;;;19.86;80.07;99665.41;4869350;29;20056;-83
2022/06/16 07:48:34;;;;;;;5.78;3.70;;;;;;;19.95;80.83;99663.19;4857398;29;22277;-83
2022/06/16 07:50:59;;;;;;;4.18;3.47;;;;;;;20.00;79.24;99660.59;4871362;29;20037;-84
2022/06/16 07:53:25;;;;;;;7.72;4.47;;;;;;;20.06;78.63;99669.50;4891638;29;20036;-84
2022/06/16 07:55:51;;;;;;;5.25;4.30;;;;;;;20.07;80.26;99655.94;4855305;29;20048;-83
2022/06/16 07:58:16;;;;;;;5.40;3.90;;;;;;;20.21;79.59;99666.25;4891011;29;20076;-84
2022/06/16 08:00:42;;;;;;;4.97;3.95;;;;;;;20.19;77.75;99671.03;4893853;29;20132;-83
2022/06/16 08:03:07;;;;;;;4.55;3.97;;;;;;;20.24;77.26;99666.59;4874029;29;20161;-82
2022/06/16 08:05:33;;;;;;;7.40;4.15;;;;;;;20.29;77.38;99671.19;4873556;29;20032;-83
2022/06/16 08:07:59;;;;;;;5.05;3.70;;;;;;;20.26;78.32;99672.47;4891053;29;20060;-83
2022/06/16 08:10:27;;;;;;;4.30;3.88;;;;;;;20.35;78.01;99680.88;4873068;29;20116;-82
2022/06/16 08:12:54;;;;;;;4.50;3.95;;;;;;;20.36;78.19;99679.81;4854372;29;20102;-80
2022/06/16 08:15:20;;;;;;;5.18;4.22;;;;;;;20.42;76.70;99686.03;4852728;29;20040;-79
2022/06/16 08:17:50;;;;;;;4.53;3.63;;;;;;;20.47;78.00;99690.66;4868062;29;20492;-80
2022/06/16 08:20:17;;;;;;;5.55;3.75;;;;;;;20.53;77.01;99689.66;4855978;29;20032;-82
2022/06/16 08:22:43;;;;;;;4.45;3.45;;;;;;;20.58;75.77;99689.72;4854386;29;20124;-83
2022/06/16 08:25:12;;;;;;;5.10;3.80;;;;;;;20.68;76.77;99697.88;4874025;29;20115;-83
2022/06/16 08:27:40;;;;;;;3.92;3.40;;;;;;;20.79;77.72;99687.34;4871618;29;20051;-83
2022/06/16 08:30:12;;;;;;;5.47;3.60;;;;;;;20.90;76.78;99682.97;4873670;29;20033;-85
2022/06/16 08:32:38;;;;;;;4.72;3.40;;;;;;;20.80;74.58;99673.81;4889476;29;20044;-84
2022/06/16 08:35:05;;;;;;;4.63;3.70;;;;;;;21.00;74.84;99666.28;4888521;29;20051;-84
2022/06/16 08:37:31;;;;;;;6.13;3.60;;;;;;;21.06;74.24;99659.97;4855145;29;20047;-83
2022/06/16 08:39:57;;;;;;;9.65;3.85;;;;;;;21.11;74.12;99657.38;4871141;29;20448;-82
2022/06/16 08:42:42;;;;;;;4.70;3.20;;;;;;;21.21;73.70;99654.78;4854905;29;20045;-84
2022/06/16 08:45:20;;;;;;;4.47;3.95;;;;;;;21.22;73.62;99652.94;4870080;29;20119;-83
2022/06/16 08:47:52;;;;;;;3.90;3.53;;;;;;;21.34;73.78;99640.28;4852831;29;20036;-85
2022/06/16 08:50:45;;;;;;;4.68;3.50;;;;;;;21.57;72.51;99642.88;4883600;29;20111;-84
2022/06/16 08:53:18;;;;;;;5.20;3.55;;;;;;;21.73;73.57;99631.31;4888886;29;20035;-84
2022/06/16 08:56:00;;;;;;;5.25;3.47;;;;;;;21.85;71.50;99619.66;4888498;29;20111;-84
2022/06/16 08:58:40;;;;;;;4.35;3.25;;;;;;;22.03;68.79;99621.09;4886536;29;20107;-84
2022/06/16 09:01:10;;;;;;;6.30;3.50;;;;;;;;;;4871478;29;20487;-85
2022/06/16 09:04:00;;;;;;;4.05;3.65;;;;;;;22.07;67.49;99598.97;4887062;29;20028;-85
2022/06/16 09:06:54;;;;;;;4.82;3.30;;;;;;;22.48;66.69;99597.63;4864822;29;20448;-84
2022/06/16 09:12:44;;;;;;;6.63;4.07;;;;;;;23.06;65.60;99612.84;4887567;29;20936;-84
2022/06/16 09:15:27;;;;;;;7.00;3.85;;;;;;;23.32;63.26;99624.44;4869959;29;20395;-85
2022/06/16 09:18:24;;;;;;;3.65;3.35;;;;;;;23.53;62.00;99627.94;4868625;29;20033;-85
2022/06/16 09:21:05;;;;;;;4.43;3.33;;;;;;;23.78;62.83;99636.28;4873232;29;20037;-84
2022/06/16 09:23:30;;;;;;;4.25;2.90;;;;;;;24.11;62.04;99636.81;4884571;29;20029;-84
2022/06/16 09:26:46;;;;;;;5.50;3.67;;;;;;;24.44;61.14;99631.13;4884059;29;20032;-84
2022/06/16 09:29:12;;;;;;;3.42;3.10;;;;;;;24.44;59.42;99633.81;4797374;29;20074;-84
2022/06/16 09:31:42;;;;;;;4.90;3.05;;;;;;;24.63;58.87;99639.38;4807694;29;20489;-84
2022/06/16 09:34:20;;;;;;;3.72;3.38;;;;;;;24.70;57.06;99642.59;4835175;29;20522;-85
2022/06/16 09:36:56;;;;;;;3.40;3.10;;;;;;;24.94;56.46;99652.72;4882198;29;20040;-87
2022/06/16 09:39:53;;;;;;;3.53;3.22;;;;;;;24.80;57.11;99656.00;4850085;29;20487;-87
2022/06/16 09:43:10;;;;;;;4.38;3.42;;;;;;;25.28;57.61;99652.03;4858005;29;20041;-87
2022/06/16 09:46:05;;;;;;;3.80;3.00;;;;;;;25.17;55.24;99634.34;4866659;29;20033;-86
2022/06/16 09:48:37;;;;;;;3.92;2.97;;;;;;;25.70;56.82;99641.81;4843697;29;20025;-86
2022/06/16 09:51:36;;;;;;;5.20;3.13;;;;;;;26.04;55.15;99640.16;4884556;29;20100;-87
2022/06/16 09:54:22;;;;;;;3.22;2.92;;;;;;;26.29;53.55;99630.28;4854159;29;20194;-87
2022/06/16 09:56:54;;;;;;;5.57;3.00;;;;;;;26.62;53.94;99639.34;4849410;29;20094;-86
2022/06/16 09:59:36;;;;;;;3.40;3.10;;;;;;;26.06;52.96;99628.06;4865110;29;20045;-87
2022/06/16 10:02:13;;;;;;;3.90;3.20;;;;;;;26.23;52.25;99629.53;4870882;29;20068;-88
2022/06/16 10:04:43;;;;;;;2.80;2.60;;;;;;;26.32;51.75;99646.66;4869151;29;20395;-86
2022/06/16 10:07:15;;;;;;;3.10;2.85;;;;;;;26.03;51.66;99633.19;4853791;29;20057;-86
2022/06/16 10:10:08;;;;;;;3.30;3.00;;;;;;;26.21;50.92;99647.88;4853491;29;20487;-86
2022/06/16 10:13:00;;;;;;;3.20;2.90;;;;;;;25.55;52.34;99633.84;4857321;29;20075;-88
2022/06/16 10:15:48;;;;;;;3.37;2.77;;;;;;;25.51;53.32;99655.91;4852649;29;20052;-86
2022/06/16 10:18:20;;;;;;;3.00;2.60;;;;;;;25.27;53.30;99646.91;4851406;29;20063;-87
2022/06/16 10:20:56;;;;;;;3.13;2.90;;;;;;;25.35;54.46;99649.00;4869527;29;20036;-86
2022/06/16 10:23:29;;;;;;;5.55;3.00;;;;;;;25.39;55.11;99668.88;4853794;29;20039;-87
2022/06/16 10:26:14;;;;;;;3.20;2.90;;;;;;;25.30;54.39;99662.47;4869625;29;20123;-87
2022/06/16 10:29:28;;;;;;;3.60;3.28;;;;;;;25.49;55.34;99663.47;4853956;29;20103;-86
2022/06/16 10:32:13;;;;;;;5.28;3.05;;;;;;;25.89;55.69;99641.13;4806337;29;20042;-87
2022/06/16 10:34:50;;;;;;;3.47;3.08;;;;;;;26.29;57.39;99644.53;4856062;29;20045;-86
2022/06/16 10:37:22;;;;;;;6.28;2.90;;;;;;;26.30;54.12;99642.66;4852984;29;20063;-86
2022/06/16 10:40:04;;;;;;;3.88;2.85;;;;;;;26.23;52.43;99643.78;4866785;29;20062;-88
2022/06/16 10:42:40;;;;;;;4.00;3.25;;;;;;;26.02;54.21;99648.53;4854339;29;20502;-86
2022/06/16 10:45:23;;;;;;;4.05;3.00;;;;;;;26.21;53.54;99650.56;4854299;29;20403;-86
2022/06/16 10:47:55;;;;;;;5.32;3.30;;;;;;;26.23;53.88;99635.72;4865048;29;20041;-88
2022/06/16 10:50:36;;;;;;;4.77;3.23;;;;;;;26.21;54.64;99650.56;4868471;29;20037;-86
2022/06/16 10:53:10;;;;;;;3.85;3.20;;;;;;;25.55;54.96;99628.47;4852305;29;20082;-87
2022/06/16 10:55:42;;;;;;;3.47;3.17;;;;;;;26.08;53.85;99642.03;4850382;29;20127;-88
2022/06/16 10:58:25;;;;;;;4.15;3.00;;;;;;;26.31;52.36;99644.25;4890179;29;20035;-86
2022/06/16 11:01:28;;;;;;;3.35;3.05;;;;;;;26.21;51.28;99639.78;4853424;29;20037;-87
2022/06/16 11:04:37;;;;;;;3.00;2.80;;;;;;;26.60;52.12;99641.53;4872011;29;20506;-88
2022/06/16 11:07:18;;;;;;;2.92;2.63;;;;;;;25.66;51.53;99630.84;4850140;29;20045;-87
2022/06/16 11:09:47;;;;;;;3.42;2.90;;;;;;;26.23;51.58;99640.31;4859414;29;20506;-86
2022/06/16 11:12:21;;;;;;;3.20;2.92;;;;;;;26.34;52.48;99628.38;4856100;29;20488;-86
2022/06/16 11:15:11;;;;;;;4.18;3.10;;;;;;;25.99;52.81;99665.25;4854895;29;20113;-85
2022/06/16 11:17:47;;;;;;;2.88;2.67;;;;;;;25.70;50.74;99673.28;4867816;29;20028;-87
2022/06/16 11:20:35;;;;;;;3.17;2.97;;;;;;;26.36;52.74;99674.63;4892100;29;20043;-86
2022/06/16 11:23:24;;;;;;;3.13;2.83;;;;;;;26.37;49.44;99664.66;4857164;29;20048;-86
2022/06/16 11:26:02;;;;;;;3.55;2.50;;;;;;;25.97;48.88;99682.75;4876854;29;20186;-86
2022/06/16 11:28:40;;;;;;;3.65;2.42;;;;;;;25.90;49.73;99693.81;4855694;29;20040;-86
2022/06/16 11:31:07;;;;;;;3.85;2.50;;;;;;;26.75;49.97;99672.84;4860922;29;20033;-88
2022/06/16 11:36:57;;;;;;;4.75;2.70;;;;;;;26.96;49.17;99701.47;4889874;29;20033;-87
2022/06/16 11:40:00;;;;;;;4.38;2.72;;;;;;;27.06;49.17;99698.63;4870635;29;21629;-86
2022/06/16 11:42:57;;;;;;;5.90;3.20;;;;;;;27.64;51.12;99705.69;4855189;29;20048;-85
2022/06/16 11:45:47;;;;;;;4.70;3.45;;;;;;;27.82;51.37;99703.28;4851205;29;20064;-84
2022/06/16 11:48:52;;;;;;;5.10;3.42;;;;;;;27.55;50.42;99709.34;4856348;29;20508;-85
2022/06/16 11:51:38;;;;;;;11.40;3.20;;;;;;;27.41;49.67;99707.34;4837431;29;20072;-86
2022/06/16 11:54:53;;;;;;;5.80;2.92;;;;;;;27.21;49.60;99701.13;4854023;29;20033;-86
2022/06/16 11:57:21;;;;;;;;;;;;;;;27.09;51.58;99717.72;4867538;29;20483;-86
2022/06/16 11:59:58;;;;;;;7.25;3.53;;;;;;;27.51;52.23;99717.19;4856159;29;20289;-85
2022/06/16 12:02:37;;;;;;;6.40;3.53;;;;;;;27.54;53.85;99718.53;4855524;29;20051;-86
2022/06/16 12:05:40;;;;;;;5.07;3.40;;;;;;;26.62;52.40;99714.72;4852699;29;20029;-86
2022/06/16 12:08:25;;;;;;;6.40;3.67;;;;;;;26.62;53.71;99719.28;4854314;29;20534;-84
2022/06/16 12:10:56;;;;;;;8.13;3.60;;;;;;;27.21;51.96;99713.81;4851853;29;20039;-84
2022/06/16 12:13:37;;;;;;;10.15;3.72;;;;;;;26.84;52.44;99696.47;4888715;29;20297;-85
2022/06/16 12:16:31;;;;;;;7.88;3.60;;;;;;;27.38;52.62;99714.09;4859093;29;20127;-86
2022/06/16 12:19:56;;;;;;;4.13;3.30;;;;;;;27.86;52.77;99716.97;4871550;29;20029;-86
2022/06/16 12:22:24;;;;;;;3.80;3.30;;;;;;;28.02;53.34;99718.31;4812918;29;20103;-85